sensor_id;sensor_type;location;lat;lon;timestamp;P1;durP1;ratioP1;P2;durP2;ratioP2
34924;SDS011;21130;51.728;8.748;2022-08-01T00:00:18;23.73;;;21.20;;
34924;SDS011;21130;51.728;8.748;2022-08-01T00:02:44;27.65;;;22.05;;
34924;SDS011;21130;51.728;8.748;2022-08-01T00:05:09;25.35;;;22.48;;
34924;SDS011;21130;51.728;8.748;2022-08-01T00:07:36;23.98;;;21.15;;
34924;SDS011;21130;51.728;8.748;2022-08-01T00:10:06;26.90;;;21.40;;
34924;SDS011;21130;51.728;8.748;2022-08-01T00:12:35;22.63;;;20.27;;
34924;SDS011;21130;51.728;8.748;2022-08-01T00:15:01;23.45;;;20.98;;
34924;SDS011;21130;51.728;8.748;2022-08-01T00:17:27;23.90;;;20.92;;
34924;SDS011;21130;51.728;8.748;2022-08-01T00:19:53;22.73;;;20.38;;
34924;SDS011;21130;51.728;8.748;2022-08-01T00:22:18;25.30;;;22.45;;
34924;SDS011;21130;51.728;8.748;2022-08-01T00:24:43;23.83;;;21.27;;
34924;SDS011;21130;51.728;8.748;2022-08-01T00:27:08;27.23;;;21.30;;
34924;SDS011;21130;51.728;8.748;2022-08-01T00:29:34;24.45;;;21.75;;
34924;SDS011;21130;51.728;8.748;2022-08-01T00:31:59;23.50;;;20.63;;
34924;SDS011;21130;51.728;8.748;2022-08-01T00:34:24;24.30;;;20.45;;
34924;SDS011;21130;51.728;8.748;2022-08-01T00:36:50;26.85;;;21.92;;
34924;SDS011;21130;51.728;8.748;2022-08-01T00:39:15;22.75;;;19.88;;
34924;SDS011;21130;51.728;8.748;2022-08-01T00:41:40;21.75;;;19.38;;
34924;SDS011;21130;51.728;8.748;2022-08-01T00:44:06;23.63;;;20.77;;
34924;SDS011;21130;51.728;8.748;2022-08-01T00:46:32;23.70;;;20.52;;
34924;SDS011;21130;51.728;8.748;2022-08-01T00:48:58;24.42;;;20.95;;
34924;SDS011;21130;51.728;8.748;2022-08-01T00:51:24;25.92;;;21.67;;
34924;SDS011;21130;51.728;8.748;2022-08-01T00:53:50;27.90;;;22.08;;
34924;SDS011;21130;51.728;8.748;2022-08-01T00:56:15;27.10;;;22.08;;
34924;SDS011;21130;51.728;8.748;2022-08-01T00:58:41;28.15;;;22.23;;
34924;SDS011;21130;51.728;8.748;2022-08-01T01:01:07;25.30;;;22.60;;
34924;SDS011;21130;51.728;8.748;2022-08-01T01:03:33;29.33;;;23.02;;
34924;SDS011;21130;51.728;8.748;2022-08-01T01:06:07;27.85;;;22.50;;
34924;SDS011;21130;51.728;8.748;2022-08-01T01:08:53;28.15;;;22.63;;
34924;SDS011;21130;51.728;8.748;2022-08-01T01:11:28;29.80;;;24.48;;
34924;SDS011;21130;51.728;8.748;2022-08-01T01:14:04;28.60;;;24.50;;
34924;SDS011;21130;51.728;8.748;2022-08-01T01:16:35;29.40;;;23.98;;
34924;SDS011;21130;51.728;8.748;2022-08-01T01:19:04;26.90;;;24.02;;
34924;SDS011;21130;51.728;8.748;2022-08-01T01:24:31;33.00;;;24.35;;
34924;SDS011;21130;51.728;8.748;2022-08-01T01:27:06;34.08;;;25.63;;
34924;SDS011;21130;51.728;8.748;2022-08-01T01:29:48;28.70;;;24.52;;
34924;SDS011;21130;51.728;8.748;2022-08-01T01:32:17;31.25;;;26.88;;
34924;SDS011;21130;51.728;8.748;2022-08-01T01:34:48;29.92;;;24.35;;
34924;SDS011;21130;51.728;8.748;2022-08-01T01:37:19;21.95;;;19.75;;
34924;SDS011;21130;51.728;8.748;2022-08-01T01:39:48;21.27;;;18.80;;
34924;SDS011;21130;51.728;8.748;2022-08-01T01:42:16;21.90;;;19.27;;
34924;SDS011;21130;51.728;8.748;2022-08-01T01:44:43;16.92;;;14.93;;
34924;SDS011;21130;51.728;8.748;2022-08-01T01:47:09;15.48;;;13.43;;
34924;SDS011;21130;51.728;8.748;2022-08-01T01:49:37;14.98;;;13.38;;
34924;SDS011;21130;51.728;8.748;2022-08-01T01:52:04;14.50;;;13.05;;
34924;SDS011;21130;51.728;8.748;2022-08-01T01:54:34;14.98;;;11.88;;
34924;SDS011;21130;51.728;8.748;2022-08-01T01:57:02;12.48;;;11.18;;
34924;SDS011;21130;51.728;8.748;2022-08-01T01:59:30;12.32;;;11.02;;
34924;SDS011;21130;51.728;8.748;2022-08-01T02:01:58;14.02;;;11.68;;
34924;SDS011;21130;51.728;8.748;2022-08-01T02:04:26;12.77;;;11.40;;
34924;SDS011;21130;51.728;8.748;2022-08-01T02:06:53;14.45;;;12.07;;
34924;SDS011;21130;51.728;8.748;2022-08-01T02:09:20;12.68;;;11.48;;
34924;SDS011;21130;51.728;8.748;2022-08-01T02:11:48;11.77;;;10.52;;
34924;SDS011;21130;51.728;8.748;2022-08-01T02:14:15;14.50;;;12.15;;
34924;SDS011;21130;51.728;8.748;2022-08-01T02:16:44;14.20;;;12.02;;
34924;SDS011;21130;51.728;8.748;2022-08-01T02:19:12;15.52;;;12.65;;
34924;SDS011;21130;51.728;8.748;2022-08-01T02:21:44;14.68;;;11.40;;
34924;SDS011;21130;51.728;8.748;2022-08-01T02:27:09;15.60;;;10.93;;
34924;SDS011;21130;51.728;8.748;2022-08-01T02:29:39;14.20;;;10.60;;
34924;SDS011;21130;51.728;8.748;2022-08-01T02:32:30;12.80;;;10.82;;
34924;SDS011;21130;51.728;8.748;2022-08-01T02:34:59;13.98;;;11.45;;
34924;SDS011;21130;51.728;8.748;2022-08-01T02:37:27;13.77;;;12.00;;
34924;SDS011;21130;51.728;8.748;2022-08-01T02:39:56;15.15;;;11.52;;
34924;SDS011;21130;51.728;8.748;2022-08-01T02:42:23;14.32;;;12.40;;
34924;SDS011;21130;51.728;8.748;2022-08-01T02:44:51;18.02;;;12.75;;
34924;SDS011;21130;51.728;8.748;2022-08-01T02:47:17;13.50;;;11.98;;
34924;SDS011;21130;51.728;8.748;2022-08-01T02:49:45;15.48;;;13.10;;
34924;SDS011;21130;51.728;8.748;2022-08-01T02:52:13;17.02;;;13.00;;
34924;SDS011;21130;51.728;8.748;2022-08-01T02:54:41;18.42;;;12.43;;
34924;SDS011;21130;51.728;8.748;2022-08-01T02:57:10;16.30;;;13.80;;
34924;SDS011;21130;51.728;8.748;2022-08-01T02:59:38;16.30;;;13.68;;
34924;SDS011;21130;51.728;8.748;2022-08-01T03:02:05;17.27;;;14.32;;
34924;SDS011;21130;51.728;8.748;2022-08-01T03:07:23;19.27;;;15.20;;
34924;SDS011;21130;51.728;8.748;2022-08-01T03:09:49;19.58;;;15.02;;
34924;SDS011;21130;51.728;8.748;2022-08-01T03:12:17;18.42;;;14.93;;
34924;SDS011;21130;51.728;8.748;2022-08-01T03:14:45;18.83;;;15.57;;
34924;SDS011;21130;51.728;8.748;2022-08-01T03:17:12;20.55;;;15.13;;
34924;SDS011;21130;51.728;8.748;2022-08-01T03:19:39;19.00;;;14.80;;
34924;SDS011;21130;51.728;8.748;2022-08-01T03:22:09;18.90;;;15.43;;
34924;SDS011;21130;51.728;8.748;2022-08-01T03:24:38;20.15;;;15.48;;
34924;SDS011;21130;51.728;8.748;2022-08-01T03:27:05;23.25;;;15.57;;
34924;SDS011;21130;51.728;8.748;2022-08-01T03:29:33;20.63;;;15.38;;
34924;SDS011;21130;51.728;8.748;2022-08-01T03:32:00;21.67;;;16.13;;
34924;SDS011;21130;51.728;8.748;2022-08-01T03:34:26;20.42;;;15.15;;
34924;SDS011;21130;51.728;8.748;2022-08-01T03:39:54;19.95;;;15.15;;
34924;SDS011;21130;51.728;8.748;2022-08-01T03:42:42;18.42;;;15.02;;
34924;SDS011;21130;51.728;8.748;2022-08-01T03:45:11;20.70;;;14.93;;
34924;SDS011;21130;51.728;8.748;2022-08-01T03:47:44;19.88;;;15.32;;
34924;SDS011;21130;51.728;8.748;2022-08-01T03:50:13;18.77;;;14.18;;
34924;SDS011;21130;51.728;8.748;2022-08-01T03:52:41;19.17;;;14.60;;
34924;SDS011;21130;51.728;8.748;2022-08-01T03:55:09;17.65;;;14.60;;
34924;SDS011;21130;51.728;8.748;2022-08-01T03:57:36;19.55;;;15.27;;
34924;SDS011;21130;51.728;8.748;2022-08-01T04:00:03;20.10;;;14.70;;
34924;SDS011;21130;51.728;8.748;2022-08-01T04:02:34;17.75;;;14.57;;
34924;SDS011;21130;51.728;8.748;2022-08-01T04:05:01;17.70;;;14.85;;
34924;SDS011;21130;51.728;8.748;2022-08-01T04:07:31;16.80;;;13.60;;
34924;SDS011;21130;51.728;8.748;2022-08-01T04:09:57;18.92;;;14.65;;
34924;SDS011;21130;51.728;8.748;2022-08-01T04:12:23;16.48;;;13.25;;
34924;SDS011;21130;51.728;8.748;2022-08-01T04:14:49;16.55;;;13.45;;
34924;SDS011;21130;51.728;8.748;2022-08-01T04:17:15;15.10;;;12.85;;
34924;SDS011;21130;51.728;8.748;2022-08-01T04:19:41;17.30;;;12.70;;
34924;SDS011;21130;51.728;8.748;2022-08-01T04:22:08;15.68;;;12.27;;
34924;SDS011;21130;51.728;8.748;2022-08-01T04:24:36;17.45;;;12.75;;
34924;SDS011;21130;51.728;8.748;2022-08-01T04:27:04;14.82;;;12.07;;
34924;SDS011;21130;51.728;8.748;2022-08-01T04:29:32;17.70;;;13.02;;
34924;SDS011;21130;51.728;8.748;2022-08-01T04:31:59;16.13;;;12.82;;
34924;SDS011;21130;51.728;8.748;2022-08-01T04:34:26;18.50;;;12.38;;
34924;SDS011;21130;51.728;8.748;2022-08-01T04:36:56;13.60;;;11.38;;
34924;SDS011;21130;51.728;8.748;2022-08-01T04:39:23;14.30;;;11.63;;
34924;SDS011;21130;51.728;8.748;2022-08-01T04:41:52;12.43;;;10.73;;
34924;SDS011;21130;51.728;8.748;2022-08-01T04:44:21;13.57;;;10.35;;
34924;SDS011;21130;51.728;8.748;2022-08-01T04:46:47;12.45;;;10.40;;
34924;SDS011;21130;51.728;8.748;2022-08-01T04:49:13;10.98;;;9.57;;
34924;SDS011;21130;51.728;8.748;2022-08-01T04:51:51;12.35;;;10.00;;
34924;SDS011;21130;51.728;8.748;2022-08-01T04:54:22;13.98;;;10.20;;
34924;SDS011;21130;51.728;8.748;2022-08-01T04:56:48;11.85;;;10.32;;
34924;SDS011;21130;51.728;8.748;2022-08-01T04:59:13;14.57;;;10.65;;
34924;SDS011;21130;51.728;8.748;2022-08-01T05:01:57;12.93;;;10.65;;
34924;SDS011;21130;51.728;8.748;2022-08-01T05:04:35;12.85;;;9.90;;
34924;SDS011;21130;51.728;8.748;2022-08-01T05:07:02;13.75;;;10.70;;
34924;SDS011;21130;51.728;8.748;2022-08-01T05:09:27;11.82;;;9.70;;
34924;SDS011;21130;51.728;8.748;2022-08-01T05:11:53;11.40;;;9.82;;
34924;SDS011;21130;51.728;8.748;2022-08-01T05:14:18;12.75;;;9.52;;
34924;SDS011;21130;51.728;8.748;2022-08-01T05:16:44;12.55;;;10.65;;
34924;SDS011;21130;51.728;8.748;2022-08-01T05:19:09;12.70;;;10.27;;
34924;SDS011;21130;51.728;8.748;2022-08-01T05:21:48;13.50;;;10.40;;
34924;SDS011;21130;51.728;8.748;2022-08-01T05:24:13;13.02;;;10.55;;
34924;SDS011;21130;51.728;8.748;2022-08-01T05:26:40;15.18;;;10.00;;
34924;SDS011;21130;51.728;8.748;2022-08-01T05:29:06;11.70;;;10.45;;
34924;SDS011;21130;51.728;8.748;2022-08-01T05:31:31;12.77;;;10.43;;
34924;SDS011;21130;51.728;8.748;2022-08-01T05:33:59;12.77;;;10.90;;
34924;SDS011;21130;51.728;8.748;2022-08-01T05:36:25;15.77;;;11.75;;
34924;SDS011;21130;51.728;8.748;2022-08-01T05:38:51;16.17;;;12.15;;
34924;SDS011;21130;51.728;8.748;2022-08-01T05:41:16;12.70;;;11.38;;
34924;SDS011;21130;51.728;8.748;2022-08-01T05:43:41;15.48;;;12.35;;
34924;SDS011;21130;51.728;8.748;2022-08-01T05:46:06;16.92;;;13.20;;
34924;SDS011;21130;51.728;8.748;2022-08-01T05:48:32;14.43;;;12.93;;
34924;SDS011;21130;51.728;8.748;2022-08-01T05:50:57;15.00;;;13.25;;
34924;SDS011;21130;51.728;8.748;2022-08-01T05:53:22;17.98;;;13.10;;
34924;SDS011;21130;51.728;8.748;2022-08-01T05:55:48;18.02;;;13.27;;
34924;SDS011;21130;51.728;8.748;2022-08-01T05:58:13;14.30;;;11.80;;
34924;SDS011;21130;51.728;8.748;2022-08-01T06:00:38;17.17;;;12.18;;
34924;SDS011;21130;51.728;8.748;2022-08-01T06:03:04;14.73;;;12.85;;
34924;SDS011;21130;51.728;8.748;2022-08-01T06:05:29;15.02;;;12.73;;
34924;SDS011;21130;51.728;8.748;2022-08-01T06:07:56;13.80;;;11.60;;
34924;SDS011;21130;51.728;8.748;2022-08-01T06:10:23;16.50;;;12.57;;
34924;SDS011;21130;51.728;8.748;2022-08-01T06:12:48;15.70;;;12.23;;
34924;SDS011;21130;51.728;8.748;2022-08-01T06:15:13;17.10;;;13.48;;
34924;SDS011;21130;51.728;8.748;2022-08-01T06:17:39;14.85;;;12.88;;
34924;SDS011;21130;51.728;8.748;2022-08-01T06:20:06;13.55;;;12.05;;
34924;SDS011;21130;51.728;8.748;2022-08-01T06:22:32;16.58;;;12.35;;
34924;SDS011;21130;51.728;8.748;2022-08-01T06:24:58;17.85;;;13.07;;
34924;SDS011;21130;51.728;8.748;2022-08-01T06:27:23;14.35;;;11.50;;
34924;SDS011;21130;51.728;8.748;2022-08-01T06:29:50;13.75;;;12.32;;
34924;SDS011;21130;51.728;8.748;2022-08-01T06:32:18;15.05;;;12.32;;
34924;SDS011;21130;51.728;8.748;2022-08-01T06:34:44;13.15;;;10.73;;
34924;SDS011;21130;51.728;8.748;2022-08-01T06:37:09;12.73;;;10.95;;
34924;SDS011;21130;51.728;8.748;2022-08-01T06:39:35;13.38;;;11.98;;
34924;SDS011;21130;51.728;8.748;2022-08-01T06:42:00;14.07;;;11.73;;
34924;SDS011;21130;51.728;8.748;2022-08-01T06:44:26;12.40;;;11.10;;
34924;SDS011;21130;51.728;8.748;2022-08-01T06:46:51;13.00;;;10.98;;
34924;SDS011;21130;51.728;8.748;2022-08-01T06:49:16;11.50;;;10.30;;
34924;SDS011;21130;51.728;8.748;2022-08-01T06:51:41;11.30;;;10.10;;
34924;SDS011;21130;51.728;8.748;2022-08-01T06:54:07;11.52;;;10.32;;
34924;SDS011;21130;51.728;8.748;2022-08-01T06:56:32;10.70;;;9.52;;
34924;SDS011;21130;51.728;8.748;2022-08-01T06:59:00;9.88;;;8.88;;
34924;SDS011;21130;51.728;8.748;2022-08-01T07:01:26;10.85;;;9.82;;
34924;SDS011;21130;51.728;8.748;2022-08-01T07:03:53;11.05;;;9.95;;
34924;SDS011;21130;51.728;8.748;2022-08-01T07:06:18;11.65;;;9.63;;
34924;SDS011;21130;51.728;8.748;2022-08-01T07:08:44;10.25;;;9.07;;
34924;SDS011;21130;51.728;8.748;2022-08-01T07:11:09;11.00;;;9.82;;
34924;SDS011;21130;51.728;8.748;2022-08-01T07:13:35;10.05;;;9.05;;
34924;SDS011;21130;51.728;8.748;2022-08-01T07:16:00;9.68;;;8.65;;
34924;SDS011;21130;51.728;8.748;2022-08-01T07:18:25;8.38;;;7.30;;
34924;SDS011;21130;51.728;8.748;2022-08-01T07:20:50;9.32;;;7.68;;
34924;SDS011;21130;51.728;8.748;2022-08-01T07:23:16;7.38;;;6.65;;
34924;SDS011;21130;51.728;8.748;2022-08-01T07:25:42;5.53;;;4.65;;
34924;SDS011;21130;51.728;8.748;2022-08-01T07:28:07;5.57;;;4.63;;
34924;SDS011;21130;51.728;8.748;2022-08-01T07:30:33;4.55;;;4.15;;
34924;SDS011;21130;51.728;8.748;2022-08-01T07:32:59;4.47;;;4.07;;
34924;SDS011;21130;51.728;8.748;2022-08-01T07:35:25;4.50;;;4.10;;
34924;SDS011;21130;51.728;8.748;2022-08-01T07:37:50;3.83;;;3.53;;
34924;SDS011;21130;51.728;8.748;2022-08-01T07:40:18;4.25;;;3.95;;
34924;SDS011;21130;51.728;8.748;2022-08-01T07:42:44;3.83;;;3.53;;
34924;SDS011;21130;51.728;8.748;2022-08-01T07:45:10;3.20;;;3.00;;
34924;SDS011;21130;51.728;8.748;2022-08-01T07:47:36;4.18;;;3.78;;
34924;SDS011;21130;51.728;8.748;2022-08-01T07:50:03;2.95;;;2.33;;
34924;SDS011;21130;51.728;8.748;2022-08-01T07:52:29;2.83;;;2.63;;
34924;SDS011;21130;51.728;8.748;2022-08-01T07:54:55;2.67;;;2.45;;
34924;SDS011;21130;51.728;8.748;2022-08-01T07:57:21;2.03;;;1.92;;
34924;SDS011;21130;51.728;8.748;2022-08-01T07:59:47;1.95;;;1.85;;
34924;SDS011;21130;51.728;8.748;2022-08-01T08:02:12;1.92;;;1.80;;
34924;SDS011;21130;51.728;8.748;2022-08-01T08:04:38;2.42;;;2.20;;
34924;SDS011;21130;51.728;8.748;2022-08-01T08:07:03;3.20;;;2.90;;
34924;SDS011;21130;51.728;8.748;2022-08-01T08:09:28;3.22;;;3.03;;
34924;SDS011;21130;51.728;8.748;2022-08-01T08:11:54;5.40;;;4.15;;
34924;SDS011;21130;51.728;8.748;2022-08-01T08:14:19;6.57;;;6.00;;
34924;SDS011;21130;51.728;8.748;2022-08-01T08:16:47;5.75;;;5.25;;
34924;SDS011;21130;51.728;8.748;2022-08-01T08:19:12;3.65;;;3.35;;
34924;SDS011;21130;51.728;8.748;2022-08-01T08:21:38;4.40;;;3.92;;
34924;SDS011;21130;51.728;8.748;2022-08-01T08:24:03;4.53;;;4.13;;
34924;SDS011;21130;51.728;8.748;2022-08-01T08:26:53;3.70;;;3.40;;
34924;SDS011;21130;51.728;8.748;2022-08-01T08:29:24;5.00;;;4.65;;
34924;SDS011;21130;51.728;8.748;2022-08-01T08:31:54;7.03;;;6.18;;
34924;SDS011;21130;51.728;8.748;2022-08-01T08:34:20;7.15;;;6.55;;
34924;SDS011;21130;51.728;8.748;2022-08-01T08:36:46;6.30;;;5.72;;
34924;SDS011;21130;51.728;8.748;2022-08-01T08:39:11;8.18;;;5.55;;
34924;SDS011;21130;51.728;8.748;2022-08-01T08:41:37;5.00;;;4.60;;
34924;SDS011;21130;51.728;8.748;2022-08-01T08:44:05;5.13;;;4.72;;
34924;SDS011;21130;51.728;8.748;2022-08-01T08:46:32;5.20;;;4.75;;
34924;SDS011;21130;51.728;8.748;2022-08-01T08:48:58;4.57;;;4.18;;
34924;SDS011;21130;51.728;8.748;2022-08-01T08:51:26;4.43;;;4.13;;
34924;SDS011;21130;51.728;8.748;2022-08-01T08:53:53;4.45;;;4.05;;
34924;SDS011;21130;51.728;8.748;2022-08-01T08:56:20;4.15;;;3.75;;
34924;SDS011;21130;51.728;8.748;2022-08-01T08:58:48;3.47;;;3.28;;
34924;SDS011;21130;51.728;8.748;2022-08-01T09:01:13;3.28;;;2.97;;
34924;SDS011;21130;51.728;8.748;2022-08-01T09:03:39;3.28;;;2.80;;
34924;SDS011;21130;51.728;8.748;2022-08-01T09:06:04;2.65;;;2.35;;
34924;SDS011;21130;51.728;8.748;2022-08-01T09:08:30;2.30;;;2.10;;
34924;SDS011;21130;51.728;8.748;2022-08-01T09:10:56;2.03;;;1.85;;
34924;SDS011;21130;51.728;8.748;2022-08-01T09:13:21;1.05;;;0.95;;
34924;SDS011;21130;51.728;8.748;2022-08-01T09:15:51;1.20;;;1.20;;
34924;SDS011;21130;51.728;8.748;2022-08-01T09:23:35;1.65;;;1.50;;
34924;SDS011;21130;51.728;8.748;2022-08-01T09:26:05;1.58;;;1.48;;
34924;SDS011;21130;51.728;8.748;2022-08-01T09:28:34;1.83;;;1.73;;
34924;SDS011;21130;51.728;8.748;2022-08-01T09:31:18;2.30;;;2.20;;
34924;SDS011;21130;51.728;8.748;2022-08-01T09:34:03;2.90;;;2.42;;
34924;SDS011;21130;51.728;8.748;2022-08-01T09:36:48;2.70;;;2.50;;
34924;SDS011;21130;51.728;8.748;2022-08-01T09:39:20;2.70;;;2.50;;
34924;SDS011;21130;51.728;8.748;2022-08-01T09:41:56;2.17;;;1.70;;
34924;SDS011;21130;51.728;8.748;2022-08-01T09:44:39;1.95;;;1.85;;
34924;SDS011;21130;51.728;8.748;2022-08-01T09:47:05;2.20;;;1.67;;
34924;SDS011;21130;51.728;8.748;2022-08-01T09:49:33;1.98;;;1.77;;
34924;SDS011;21130;51.728;8.748;2022-08-01T09:52:09;1.80;;;1.70;;
34924;SDS011;21130;51.728;8.748;2022-08-01T09:54:56;1.80;;;1.70;;
34924;SDS011;21130;51.728;8.748;2022-08-01T09:57:25;1.90;;;1.80;;
34924;SDS011;21130;51.728;8.748;2022-08-01T09:59:52;2.25;;;2.10;;
34924;SDS011;21130;51.728;8.748;2022-08-01T10:05:02;1.55;;;1.45;;
34924;SDS011;21130;51.728;8.748;2022-08-01T10:07:32;1.98;;;1.88;;
34924;SDS011;21130;51.728;8.748;2022-08-01T10:10:14;2.20;;;2.00;;
34924;SDS011;21130;51.728;8.748;2022-08-01T10:12:41;2.47;;;2.22;;
34924;SDS011;21130;51.728;8.748;2022-08-01T10:15:07;2.35;;;2.25;;
34924;SDS011;21130;51.728;8.748;2022-08-01T10:17:34;0.95;;;0.95;;
34924;SDS011;21130;51.728;8.748;2022-08-01T10:20:02;1.08;;;1.00;;
34924;SDS011;21130;51.728;8.748;2022-08-01T10:22:29;1.15;;;1.10;;
34924;SDS011;21130;51.728;8.748;2022-08-01T10:24:56;1.98;;;1.88;;
34924;SDS011;21130;51.728;8.748;2022-08-01T10:27:24;2.38;;;2.17;;
34924;SDS011;21130;51.728;8.748;2022-08-01T10:29:51;3.30;;;3.00;;
34924;SDS011;21130;51.728;8.748;2022-08-01T10:32:21;2.83;;;2.58;;
34924;SDS011;21130;51.728;8.748;2022-08-01T10:34:48;2.97;;;2.70;;
34924;SDS011;21130;51.728;8.748;2022-08-01T10:37:14;2.38;;;2.17;;
34924;SDS011;21130;51.728;8.748;2022-08-01T10:39:40;2.65;;;2.00;;
34924;SDS011;21130;51.728;8.748;2022-08-01T10:42:05;2.30;;;2.10;;
34924;SDS011;21130;51.728;8.748;2022-08-01T10:44:31;2.00;;;1.90;;
34924;SDS011;21130;51.728;8.748;2022-08-01T10:47:04;3.50;;;2.53;;
34924;SDS011;21130;51.728;8.748;2022-08-01T10:49:43;2.65;;;2.45;;
34924;SDS011;21130;51.728;8.748;2022-08-01T10:52:19;3.00;;;2.47;;
34924;SDS011;21130;51.728;8.748;2022-08-01T10:54:45;2.58;;;2.38;;
34924;SDS011;21130;51.728;8.748;2022-08-01T10:57:11;2.22;;;1.92;;
34924;SDS011;21130;51.728;8.748;2022-08-01T10:59:47;1.98;;;1.83;;
34924;SDS011;21130;51.728;8.748;2022-08-01T11:02:27;2.13;;;1.90;;
34924;SDS011;21130;51.728;8.748;2022-08-01T11:05:02;1.55;;;1.45;;
34924;SDS011;21130;51.728;8.748;2022-08-01T11:10:45;0.82;;;0.82;;
34924;SDS011;21130;51.728;8.748;2022-08-01T11:13:12;1.00;;;0.90;;
34924;SDS011;21130;51.728;8.748;2022-08-01T11:15:38;0.95;;;0.95;;
34924;SDS011;21130;51.728;8.748;2022-08-01T11:21:00;1.10;;;1.10;;
34924;SDS011;21130;51.728;8.748;2022-08-01T11:23:28;1.42;;;1.33;;
34924;SDS011;21130;51.728;8.748;2022-08-01T11:28:21;2.22;;;2.00;;
34924;SDS011;21130;51.728;8.748;2022-08-01T11:39:10;2.60;;;2.40;;
34924;SDS011;21130;51.728;8.748;2022-08-01T11:41:28;2.22;;;2.05;;
34924;SDS011;21130;51.728;8.748;2022-08-01T11:54:28;0.45;;;0.45;;
34924;SDS011;21130;51.728;8.748;2022-08-01T11:57:00;0.63;;;0.30;;
34924;SDS011;21130;51.728;8.748;2022-08-01T11:59:36;17.42;;;15.88;;
34924;SDS011;21130;51.728;8.748;2022-08-01T12:02:16;0.90;;;0.90;;
34924;SDS011;21130;51.728;8.748;2022-08-01T12:07:18;0.43;;;0.43;;
34924;SDS011;21130;51.728;8.748;2022-08-01T12:09:44;0.55;;;0.35;;
34924;SDS011;21130;51.728;8.748;2022-08-01T12:12:11;1.58;;;0.40;;
34924;SDS011;21130;51.728;8.748;2022-08-01T12:14:39;0.30;;;0.30;;
34924;SDS011;21130;51.728;8.748;2022-08-01T12:17:05;0.40;;;0.40;;
34924;SDS011;21130;51.728;8.748;2022-08-01T12:19:30;0.40;;;0.40;;
34924;SDS011;21130;51.728;8.748;2022-08-01T12:24:31;0.30;;;0.30;;
34924;SDS011;21130;51.728;8.748;2022-08-01T12:26:57;0.88;;;0.55;;
34924;SDS011;21130;51.728;8.748;2022-08-01T12:29:36;0.68;;;0.68;;
34924;SDS011;21130;51.728;8.748;2022-08-01T12:34:51;1.25;;;0.47;;
34924;SDS011;21130;51.728;8.748;2022-08-01T12:37:17;0.85;;;0.70;;
34924;SDS011;21130;51.728;8.748;2022-08-01T12:39:44;0.63;;;0.50;;
34924;SDS011;21130;51.728;8.748;2022-08-01T12:42:10;0.45;;;0.45;;
34924;SDS011;21130;51.728;8.748;2022-08-01T12:44:36;0.73;;;0.60;;
34924;SDS011;21130;51.728;8.748;2022-08-01T12:47:06;0.50;;;0.43;;
34924;SDS011;21130;51.728;8.748;2022-08-01T12:49:32;2.13;;;0.47;;
34924;SDS011;21130;51.728;8.748;2022-08-01T12:51:58;1.27;;;0.50;;
34924;SDS011;21130;51.728;8.748;2022-08-01T12:54:24;0.50;;;0.50;;
34924;SDS011;21130;51.728;8.748;2022-08-01T12:56:50;0.90;;;0.90;;
34924;SDS011;21130;51.728;8.748;2022-08-01T13:01:48;1.00;;;0.70;;
34924;SDS011;21130;51.728;8.748;2022-08-01T13:04:13;0.90;;;0.90;;
34924;SDS011;21130;51.728;8.748;2022-08-01T13:06:39;1.20;;;1.10;;
34924;SDS011;21130;51.728;8.748;2022-08-01T13:09:05;1.35;;;1.25;;
34924;SDS011;21130;51.728;8.748;2022-08-01T13:11:31;2.25;;;1.38;;
34924;SDS011;21130;51.728;8.748;2022-08-01T13:13:56;3.10;;;1.40;;
34924;SDS011;21130;51.728;8.748;2022-08-01T13:16:23;1.10;;;1.00;;
34924;SDS011;21130;51.728;8.748;2022-08-01T13:18:50;2.05;;;1.00;;
34924;SDS011;21130;51.728;8.748;2022-08-01T13:21:25;1.10;;;1.00;;
34924;SDS011;21130;51.728;8.748;2022-08-01T13:24:05;2.42;;;2.22;;
34924;SDS011;21130;51.728;8.748;2022-08-01T13:26:44;1.80;;;0.90;;
34924;SDS011;21130;51.728;8.748;2022-08-01T13:29:16;1.85;;;1.08;;
34924;SDS011;21130;51.728;8.748;2022-08-01T13:31:43;1.23;;;1.10;;
34924;SDS011;21130;51.728;8.748;2022-08-01T13:34:09;1.63;;;1.40;;
34924;SDS011;21130;51.728;8.748;2022-08-01T13:36:35;3.13;;;1.10;;
34924;SDS011;21130;51.728;8.748;2022-08-01T13:39:02;1.77;;;1.10;;
34924;SDS011;21130;51.728;8.748;2022-08-01T13:41:48;1.55;;;1.20;;
34924;SDS011;21130;51.728;8.748;2022-08-01T13:44:13;2.30;;;1.27;;
34924;SDS011;21130;51.728;8.748;2022-08-01T13:46:40;1.30;;;1.17;;
34924;SDS011;21130;51.728;8.748;2022-08-01T13:49:07;1.60;;;1.50;;
34924;SDS011;21130;51.728;8.748;2022-08-01T13:51:53;4.25;;;1.80;;
34924;SDS011;21130;51.728;8.748;2022-08-01T13:54:18;2.90;;;1.90;;
34924;SDS011;21130;51.728;8.748;2022-08-01T13:56:43;2.00;;;1.00;;
34924;SDS011;21130;51.728;8.748;2022-08-01T13:59:09;1.55;;;0.90;;
34924;SDS011;21130;51.728;8.748;2022-08-01T14:01:34;0.93;;;0.93;;
34924;SDS011;21130;51.728;8.748;2022-08-01T14:04:00;0.80;;;0.80;;
34924;SDS011;21130;51.728;8.748;2022-08-01T14:06:25;1.48;;;1.10;;
34924;SDS011;21130;51.728;8.748;2022-08-01T14:08:50;2.50;;;1.42;;
34924;SDS011;21130;51.728;8.748;2022-08-01T14:11:16;1.50;;;1.40;;
34924;SDS011;21130;51.728;8.748;2022-08-01T14:13:41;1.58;;;1.38;;
34924;SDS011;21130;51.728;8.748;2022-08-01T14:16:07;1.80;;;1.50;;
34924;SDS011;21130;51.728;8.748;2022-08-01T14:18:33;1.85;;;1.38;;
34924;SDS011;21130;51.728;8.748;2022-08-01T14:20:59;1.75;;;1.65;;
34924;SDS011;21130;51.728;8.748;2022-08-01T14:23:24;2.67;;;2.30;;
34924;SDS011;21130;51.728;8.748;2022-08-01T14:25:50;2.05;;;1.90;;
34924;SDS011;21130;51.728;8.748;2022-08-01T14:28:15;3.92;;;1.60;;
34924;SDS011;21130;51.728;8.748;2022-08-01T14:30:41;3.50;;;1.70;;
34924;SDS011;21130;51.728;8.748;2022-08-01T14:33:07;3.58;;;1.48;;
34924;SDS011;21130;51.728;8.748;2022-08-01T14:35:33;1.40;;;1.30;;
34924;SDS011;21130;51.728;8.748;2022-08-01T14:37:58;1.70;;;1.20;;
34924;SDS011;21130;51.728;8.748;2022-08-01T14:40:23;0.98;;;0.85;;
34924;SDS011;21130;51.728;8.748;2022-08-01T14:42:49;1.42;;;1.10;;
34924;SDS011;21130;51.728;8.748;2022-08-01T14:45:15;2.15;;;1.00;;
34924;SDS011;21130;51.728;8.748;2022-08-01T14:47:40;2.92;;;0.68;;
34924;SDS011;21130;51.728;8.748;2022-08-01T14:50:08;1.05;;;0.80;;
34924;SDS011;21130;51.728;8.748;2022-08-01T14:52:35;1.48;;;0.70;;
34924;SDS011;21130;51.728;8.748;2022-08-01T14:55:02;2.03;;;0.77;;
34924;SDS011;21130;51.728;8.748;2022-08-01T14:57:29;1.45;;;0.82;;
34924;SDS011;21130;51.728;8.748;2022-08-01T14:59:55;0.82;;;0.63;;
34924;SDS011;21130;51.728;8.748;2022-08-01T15:02:20;1.25;;;0.80;;
34924;SDS011;21130;51.728;8.748;2022-08-01T15:04:46;1.02;;;0.70;;
34924;SDS011;21130;51.728;8.748;2022-08-01T15:07:12;3.75;;;0.90;;
34924;SDS011;21130;51.728;8.748;2022-08-01T15:09:38;1.27;;;0.70;;
34924;SDS011;21130;51.728;8.748;2022-08-01T15:12:04;1.77;;;0.93;;
34924;SDS011;21130;51.728;8.748;2022-08-01T15:14:30;1.20;;;0.88;;
34924;SDS011;21130;51.728;8.748;2022-08-01T15:17:21;0.90;;;0.60;;
34924;SDS011;21130;51.728;8.748;2022-08-01T15:19:48;1.60;;;0.70;;
34924;SDS011;21130;51.728;8.748;2022-08-01T15:22:16;1.90;;;0.80;;
34924;SDS011;21130;51.728;8.748;2022-08-01T15:24:42;1.77;;;0.80;;
34924;SDS011;21130;51.728;8.748;2022-08-01T15:27:08;0.95;;;0.70;;
34924;SDS011;21130;51.728;8.748;2022-08-01T15:29:34;0.93;;;0.63;;
34924;SDS011;21130;51.728;8.748;2022-08-01T15:32:00;1.30;;;0.80;;
34924;SDS011;21130;51.728;8.748;2022-08-01T15:34:26;1.13;;;0.82;;
34924;SDS011;21130;51.728;8.748;2022-08-01T15:36:51;0.65;;;0.47;;